Time;durP1;ratioP1;P1;durP2;ratioP2;P2;SDS_P1;SDS_P2;PMS_P1;PMS_P2;Temp;Humidity;BMP_temperature;BMP_pressure;BME280_temperature;BME280_humidity;BME280_pressure;Samples;Min_cycle;Max_cycle;Signal;HPM_P1;HPM_P2
2022/09/29 00:02:10;;;;;;;;;3.00;3.00;;;;;14.33;100.00;99767.06;5056436;28;45426;-72
2022/09/29 00:04:35;;;;;;;;;3.00;3.00;;;;;14.35;100.00;99782.03;5054510;28;60155;-74
2022/09/29 00:07:00;;;;;;;;;3.33;2.00;;;;;14.34;100.00;99768.81;5055262;28;67564;-73
2022/09/29 00:09:26;;;;;;;;;7.00;4.00;;;;;14.33;100.00;99780.34;5055998;28;45530;-72
2022/09/29 00:11:55;;;;;;;;;4.67;4.67;;;;;14.31;100.00;99782.13;5056237;28;45497;-72
2022/09/29 00:14:21;;;;;;;;;3.00;3.00;;;;;14.30;100.00;99781.28;5053444;28;45677;-71
2022/09/29 00:16:47;;;;;;;;;4.00;4.00;;;;;14.28;100.00;99772.47;5056062;28;45773;-72
2022/09/29 00:19:13;;;;;;;;;5.00;3.00;;;;;14.29;100.00;99771.56;5055588;28;45609;-74
2022/09/29 00:21:38;;;;;;;;;2.00;2.00;;;;;14.31;100.00;99766.22;5050809;28;45548;-73
2022/09/29 00:24:03;;;;;;;;;4.00;2.33;;;;;14.34;100.00;99766.16;5056044;28;45579;-74
2022/09/29 00:26:29;;;;;;;;;3.00;3.00;;;;;14.35;100.00;99767.91;5056074;28;45469;-74
2022/09/29 00:28:56;;;;;;;;;6.33;2.67;;;;;14.23;100.00;99749.59;5055503;28;45418;-74
2022/09/29 00:31:26;;;;;;;;;5.00;2.00;;;;;14.30;100.00;99756.50;5053418;28;45362;-72
2022/09/29 00:33:52;;;;;;;;;4.00;2.67;;;;;14.33;100.00;99765.28;5050998;28;45492;-72
2022/09/29 00:36:18;;;;;;;;;4.67;2.00;;;;;14.32;100.00;99760.84;5056412;28;67998;-72
2022/09/29 00:38:46;;;;;;;;;2.33;2.33;;;;;14.34;100.00;99769.69;5055624;28;46210;-73
2022/09/29 00:41:16;;;;;;;;;2.67;1.00;;;;;14.31;100.00;99759.13;5046033;28;45528;-73
2022/09/29 00:44:04;;;;;;;;;4.00;1.33;;;;;14.33;100.00;99767.06;5054792;28;45578;-71
2022/09/29 00:46:57;;;;;;;;;7.00;2.33;;;;;14.30;100.00;99764.47;5053739;28;46354;-72
2022/09/29 00:49:28;;;;;;;;;4.00;2.00;;;;;14.28;100.00;99761.84;5055878;28;45379;-72
2022/09/29 00:52:05;;;;;;;;;1.67;1.67;;;;;14.27;100.00;99753.91;5055146;28;46635;-72
2022/09/29 00:54:40;;;;;;;;;1.67;1.00;;;;;14.25;100.00;99750.41;5055081;28;45580;-72
2022/09/29 00:57:06;;;;;;;;;2.00;2.00;;;;;14.14;100.00;99743.53;5037158;28;45302;-71
2022/09/29 00:59:50;;;;;;;;;3.00;2.00;;;;;14.21;100.00;99748.72;5037397;28;45487;-70
2022/09/29 01:02:18;;;;;;;;;1.00;1.00;;;;;14.20;100.00;99750.50;5056600;28;45481;-72
2022/09/29 01:04:46;;;;;;;;;2.00;1.00;;;;;14.19;100.00;99746.09;5048411;28;45624;-72
2022/09/29 01:07:11;;;;;;;;;1.33;1.33;;;;;14.19;100.00;99754.06;5049939;28;46668;-73
2022/09/29 01:09:39;;;;;;;;;2.00;2.00;;;;;14.14;100.00;99729.41;5055170;28;64816;-74
2022/09/29 01:12:05;;;;;;;;;2.00;2.00;;;;;14.20;100.00;99739.00;5053888;28;45475;-71
2022/09/29 01:14:32;;;;;;;;;3.00;1.00;;;;;14.10;100.00;99717.09;5054440;28;45414;-73
2022/09/29 01:16:58;;;;;;;;;1.00;1.00;;;;;14.21;100.00;99736.31;5059069;28;46546;-72
2022/09/29 01:19:49;;;;;;;;;1.00;1.00;;;;;14.22;100.00;99734.53;5037182;28;45495;-72
2022/09/29 01:22:45;;;;;;;;;2.67;2.00;;;;;14.22;100.00;99737.19;5041671;28;45673;-72
2022/09/29 01:25:23;;;;;;;;;1.00;1.00;;;;;14.22;100.00;99735.44;5055244;28;45439;-72
2022/09/29 01:28:03;;;;;;;;;3.00;1.00;;;;;14.21;100.00;99732.78;5055523;28;46451;-71
2022/09/29 01:30:43;;;;;;;;;3.33;2.00;;;;;14.19;100.00;99732.84;5054039;28;45558;-72
2022/09/29 01:33:27;;;;;;;;;0.00;0.00;;;;;14.18;100.00;99728.44;5057205;28;45269;-72
2022/09/29 01:36:17;;;;;;;;;2.00;2.00;;;;;14.13;100.00;99714.38;5057575;28;45465;-71
2022/09/29 01:39:04;;;;;;;;;2.00;2.00;;;;;14.16;100.00;99724.91;5054434;28;46440;-72
2022/09/29 01:41:47;;;;;;;;;2.00;1.00;;;;;14.16;100.00;99722.25;5053880;28;45420;-72
2022/09/29 01:44:15;;;;;;;;;0.67;0.67;;;;;14.15;100.00;99726.69;5058133;28;45439;-71
2022/09/29 01:46:49;;;;;;;;;1.33;1.33;;;;;14.09;100.00;99715.34;5058825;28;45461;-72
2022/09/29 01:49:16;;;;;;;;;1.00;1.00;;;;;14.15;100.00;99724.06;5057005;28;45578;-71
2022/09/29 01:52:02;;;;;;;;;0.00;0.00;;;;;14.16;100.00;99730.22;5039972;28;47558;-74
2022/09/29 01:54:35;;;;;;;;;3.00;1.67;;;;;14.14;100.00;99732.94;5039467;28;45547;-73
2022/09/29 01:57:14;;;;;;;;;1.67;1.00;;;;;14.14;100.00;99740.03;5058938;28;45289;-72
2022/09/29 01:59:55;;;;;;;;;3.00;2.00;;;;;14.09;100.00;99723.31;5057522;28;45720;-73
2022/09/29 02:02:33;;;;;;;;;2.67;2.00;;;;;14.14;100.00;99738.22;5056185;28;45410;-73
2022/09/29 02:05:02;;;;;;;;;3.00;1.00;;;;;14.14;100.00;99743.53;5054551;28;45427;-72
2022/09/29 02:07:35;;;;;;;;;1.33;1.00;;;;;14.08;100.00;99733.06;5040520;28;45552;-72
2022/09/29 02:10:05;;;;;;;;;3.00;1.00;;;;;14.14;100.00;99740.03;5064835;28;45429;-71
2022/09/29 02:12:33;;;;;;;;;1.00;1.00;;;;;14.14;100.00;99748.84;5039122;28;45673;-73
2022/09/29 02:15:01;;;;;;;;;3.67;1.00;;;;;14.14;100.00;99745.31;5057183;28;45183;-73
2022/09/29 02:17:41;;;;;;;;;3.00;2.00;;;;;14.13;100.00;99746.25;5043864;28;45511;-72
2022/09/29 02:20:09;;;;;;;;;1.00;1.00;;;;;14.13;100.00;99739.16;5057387;28;47596;-73
2022/09/29 02:22:35;;;;;;;;;6.00;3.00;;;;;14.14;100.00;99742.66;5057812;28;45813;-73
2022/09/29 02:25:00;;;;;;;;;1.00;1.00;;;;;14.15;100.00;99736.44;5057843;28;45433;-72
2022/09/29 02:27:28;;;;;;;;;1.33;1.33;;;;;14.15;100.00;99739.97;5057255;28;60303;-72
2022/09/29 02:29:54;;;;;;;;;1.33;1.33;;;;;14.15;100.00;99731.16;5039571;28;47340;-72
2022/09/29 02:32:19;;;;;;;;;1.67;1.67;;;;;14.20;100.00;99733.69;5038890;28;45440;-72
2022/09/29 02:34:48;;;;;;;;;4.00;2.00;;;;;14.16;100.00;99728.44;5058021;28;45316;-73
2022/09/29 02:37:20;;;;;;;;;2.00;2.00;;;;;14.23;100.00;99731.00;5040314;28;45388;-74
2022/09/29 02:39:49;;;;;;;;;2.33;1.00;;;;;14.26;100.00;99728.25;5057034;28;45243;-72
2022/09/29 02:42:35;;;;;;;;;3.00;2.00;;;;;14.27;100.00;99727.34;5055719;28;45449;-74
2022/09/29 02:45:12;;;;;;;;;1.33;1.00;;;;;14.28;100.00;99729.13;5049482;28;45441;-73
2022/09/29 02:48:07;;;;;;;;;3.00;2.00;;;;;14.27;100.00;99720.25;5056248;28;45529;-72
2022/09/29 02:50:32;;;;;;;;;1.00;1.00;;;;;14.25;100.00;99719.41;5055699;28;45795;-72
2022/09/29 02:53:10;;;;;;;;;5.00;2.00;;;;;14.25;100.00;99729.16;5056952;28;45392;-71
2022/09/29 02:55:43;;;;;;;;;1.33;1.33;;;;;14.25;100.00;99718.56;5053255;28;45312;-72
2022/09/29 02:58:19;;;;;;;;;1.67;1.67;;;;;14.24;100.00;99715.03;5055094;28;45420;-72
2022/09/29 03:00:45;;;;;;;;;3.00;2.00;;;;;14.21;100.00;99707.13;5049701;28;47087;-73
2022/09/29 03:03:11;;;;;;;;;1.00;1.00;;;;;14.22;100.00;99713.28;5056862;28;45522;-72
2022/09/29 03:05:36;;;;;;;;;3.33;2.00;;;;;14.20;100.00;99709.81;5055328;28;45504;-72
2022/09/29 03:08:01;;;;;;;;;2.00;1.67;;;;;14.19;100.00;99716.03;5056730;28;60265;-70
2022/09/29 03:10:27;;;;;;;;;1.67;1.67;;;;;14.18;100.00;99715.16;5057494;28;45340;-72
2022/09/29 03:12:52;;;;;;;;;1.00;1.00;;;;;14.21;100.00;99715.06;5058518;28;60709;-72
2022/09/29 03:15:17;;;;;;;;;1.33;1.33;;;;;14.20;100.00;99709.81;5058869;28;45423;-73
2022/09/29 03:17:44;;;;;;;;;1.00;1.00;;;;;14.24;100.00;99711.50;5057391;28;45775;-72
2022/09/29 03:20:10;;;;;;;;;2.67;2.00;;;;;14.26;100.00;99715.84;5056947;28;45728;-73
2022/09/29 03:22:35;;;;;;;;;1.33;1.33;;;;;14.26;100.00;99714.97;5065325;28;45279;-72
2022/09/29 03:25:01;;;;;;;;;1.00;1.00;;;;;14.25;100.00;99716.75;5038654;28;45942;-73
2022/09/29 03:27:26;;;;;;;;;2.67;2.00;;;;;14.20;100.00;99712.47;5056170;28;45636;-72
2022/09/29 03:29:52;;;;;;;;;1.00;1.00;;;;;14.24;100.00;99719.47;5055651;28;66653;-70
2022/09/29 03:32:17;;;;;;;;;1.67;1.67;;;;;14.24;100.00;99712.38;5056520;28;57698;-73
2022/09/29 03:34:43;;;;;;;;;1.67;1.67;;;;;14.19;100.00;99706.28;5055931;28;62467;-72
2022/09/29 03:37:08;;;;;;;;;2.33;2.33;;;;;14.19;100.00;99713.38;5056179;28;45446;-72
2022/09/29 03:39:33;;;;;;;;;3.67;2.33;;;;;14.23;100.00;99721.25;5055168;28;65448;-73
2022/09/29 03:41:59;;;;;;;;;2.00;2.00;;;;;14.20;100.00;99715.13;5055239;28;45521;-72
2022/09/29 03:44:24;;;;;;;;;2.00;1.33;;;;;14.20;100.00;99712.47;5054086;28;46136;-72
2022/09/29 03:46:50;;;;;;;;;2.00;2.00;;;;;14.24;100.00;99716.81;5055262;28;62333;-72
2022/09/29 03:49:15;;;;;;;;;3.00;2.00;;;;;14.24;100.00;99707.06;5055679;28;46618;-72
2022/09/29 03:51:41;;;;;;;;;2.33;1.67;;;;;14.23;100.00;99701.78;5054684;28;68900;-72
2022/09/29 03:54:07;;;;;;;;;2.00;2.00;;;;;14.29;100.00;99712.28;5056127;28;45353;-72
2022/09/29 03:56:32;;;;;;;;;3.00;2.00;;;;;14.24;100.00;99701.75;5055757;28;45233;-72
2022/09/29 03:58:58;;;;;;;;;4.33;3.00;;;;;14.29;100.00;99712.28;5020226;28;46357;-72
2022/09/29 04:01:23;;;;;;;;;2.00;2.00;;;;;14.24;100.00;99706.19;5056160;28;45431;-72
2022/09/29 04:03:49;;;;;;;;;2.00;2.00;;;;;14.26;100.00;99714.97;5054553;28;62800;-72
2022/09/29 04:06:14;;;;;;;;;2.00;1.00;;;;;14.26;100.00;99718.50;5055406;28;56867;-74
2022/09/29 04:08:39;;;;;;;;;5.33;1.00;;;;;14.19;100.00;99706.28;5036658;28;73219;-71
2022/09/29 04:11:05;;;;;;;;;2.33;2.33;;;;;14.14;100.00;99705.50;5059398;28;45544;-72
2022/09/29 04:13:31;;;;;;;;;3.00;3.00;;;;;14.24;100.00;99722.13;5056182;28;45334;-71
2022/09/29 04:16:04;;;;;;;;;2.00;2.00;;;;;14.19;100.00;99714.25;5038827;28;51359;-72
2022/09/29 04:18:30;;;;;;;;;2.33;2.33;;;;;14.25;100.00;99721.22;5055385;28;45859;-71
2022/09/29 04:20:59;;;;;;;;;2.00;2.00;;;;;14.20;100.00;99717.78;5054128;28;45557;-72
2022/09/29 04:23:30;;;;;;;;;1.00;1.00;;;;;14.26;100.00;99730.91;5056032;28;45365;-71
2022/09/29 04:25:56;;;;;;;;;2.00;2.00;;;;;14.26;100.00;99720.28;5056333;28;45324;-71
2022/09/29 04:28:23;;;;;;;;;1.00;1.00;;;;;14.11;100.00;99694.94;5056484;28;47580;-73
2022/09/29 04:30:48;;;;;;;;;3.00;1.67;;;;;14.28;100.00;99724.69;5055587;28;45451;-72
2022/09/29 04:33:13;;;;;;;;;1.00;1.00;;;;;14.29;100.00;99731.72;5055920;28;45576;-72
2022/09/29 04:35:39;;;;;;;;;3.33;2.00;;;;;14.30;100.00;99729.94;5055375;28;45463;-72
2022/09/29 04:38:04;;;;;;;;;3.00;2.00;;;;;14.25;100.00;99719.41;5048253;28;46266;-74
2022/09/29 04:40:30;;;;;;;;;2.00;1.33;;;;;14.29;100.00;99722.91;5053029;28;45547;-72
2022/09/29 04:42:55;;;;;;;;;3.00;2.00;;;;;14.24;100.00;99714.16;5045947;28;55044;-71
2022/09/29 04:45:20;;;;;;;;;1.33;1.33;;;;;14.29;100.00;99730.84;5055184;28;45438;-71
2022/09/29 04:47:46;;;;;;;;;2.33;2.33;;;;;14.24;100.00;99719.47;5054273;28;66691;-71
2022/09/29 04:50:11;;;;;;;;;1.33;1.33;;;;;14.28;100.00;99724.69;5056355;28;58955;-71
2022/09/29 04:52:36;;;;;;;;;2.00;2.00;;;;;14.27;100.00;99725.56;5054598;28;62073;-72
2022/09/29 04:55:03;;;;;;;;;1.67;1.67;;;;;14.30;100.00;99725.50;5055104;28;56939;-72
2022/09/29 04:57:28;;;;;;;;;2.00;2.00;;;;;14.25;100.00;99721.22;5056122;28;46329;-72
2022/09/29 04:59:54;;;;;;;;;4.33;2.67;;;;;14.28;100.00;99729.13;5055854;28;45305;-72
2022/09/29 05:02:20;;;;;;;;;5.33;2.00;;;;;14.22;100.00;99727.47;5055520;28;45256;-73
2022/09/29 05:04:46;;;;;;;;;0.00;0.00;;;;;14.17;100.00;99726.69;5051557;28;52357;-71
2022/09/29 05:07:12;;;;;;;;;2.00;2.00;;;;;14.13;100.00;99720.56;5054901;28;46445;-72
2022/09/29 05:09:37;;;;;;;;;5.67;2.33;;;;;14.10;100.00;99717.97;5055731;28;45459;-72
2022/09/29 05:12:03;;;;;;;;;3.00;3.00;;;;;14.10;100.00;99714.44;5056107;28;45444;-72
2022/09/29 05:14:28;;;;;;;;;3.00;1.33;;;;;14.11;100.00;99727.69;5051775;28;45475;-71
2022/09/29 05:16:54;;;;;;;;;2.33;2.00;;;;;14.06;100.00;99721.63;5058593;28;68653;-72
2022/09/29 05:19:20;;;;;;;;;3.00;1.67;;;;;14.08;100.00;99735.72;5046837;28;45526;-72
2022/09/29 05:21:45;;;;;;;;;2.00;2.00;;;;;14.06;100.00;99734.88;5052538;28;46034;-71
2022/09/29 05:24:11;;;;;;;;;5.67;2.00;;;;;14.07;100.00;99735.75;5046144;28;45788;-72
2022/09/29 05:26:36;;;;;;;;;2.33;2.00;;;;;14.01;100.00;99736.75;5050657;28;45610;-70
2022/09/29 05:29:01;;;;;;;;;3.00;3.00;;;;;14.06;100.00;99742.84;5053514;28;69095;-71
2022/09/29 05:31:27;;;;;;;;;3.33;3.33;;;;;14.03;100.00;99732.28;5051204;28;58307;-73
2022/09/29 05:33:55;;;;;;;;;2.33;2.33;;;;;14.09;100.00;99745.41;5046518;28;58463;-70
2022/09/29 05:36:20;;;;;;;;;3.00;3.00;;;;;14.09;100.00;99734.81;5155567;22;45882;-69
2022/09/29 05:38:45;;;;;;;;;6.33;2.33;;;;;14.06;100.00;99740.19;5031330;28;64570;-69
2022/09/29 05:41:12;;;;;;;;;5.67;4.00;;;;;14.08;100.00;99748.13;5034979;28;59448;-70
2022/09/29 05:43:38;;;;;;;;;3.00;3.00;;;;;13.98;100.00;99736.81;5038006;28;45804;-72
2022/09/29 05:46:05;;;;;;;;;6.00;3.00;;;;;14.00;100.00;99742.94;5030253;28;45930;-71
2022/09/29 05:48:30;;;;;;;;;3.33;3.33;;;;;13.97;100.00;99744.81;5043112;28;45307;-71
2022/09/29 05:51:06;;;;;;;;;2.33;2.33;;;;;13.95;100.00;99734.19;5035880;28;45335;-70
2022/09/29 05:53:31;;;;;;;;;5.67;3.00;;;;;13.88;100.00;99730.81;5038453;28;45507;-69
2022/09/29 05:55:56;;;;;;;;;4.00;2.33;;;;;13.94;100.00;99736.91;5030685;28;69010;-69
2022/09/29 05:58:22;;;;;;;;;4.00;1.67;;;;;13.94;100.00;99740.41;5035647;28;65213;-71
2022/09/29 06:00:48;;;;;;;;;3.00;3.00;;;;;13.94;100.00;99744.84;5031977;28;47735;-71
2022/09/29 06:03:13;;;;;;;;;4.00;2.67;;;;;14.00;100.00;99755.34;5035152;28;45574;-70
2022/09/29 06:05:39;;;;;;;;;3.00;3.00;;;;;13.99;100.00;99748.28;5031279;28;69775;-71
2022/09/29 06:08:05;;;;;;;;;3.00;2.33;;;;;14.01;100.00;99751.78;5039464;28;45384;-71
2022/09/29 06:10:31;;;;;;;;;2.67;2.67;;;;;13.99;100.00;99751.81;5034614;28;57081;-71
2022/09/29 06:12:56;;;;;;;;;3.00;3.00;;;;;13.93;100.00;99741.34;5033039;28;45518;-70
2022/09/29 06:15:22;;;;;;;;;4.00;3.67;;;;;14.00;100.00;99752.69;5043616;28;46320;-70
2022/09/29 06:17:54;;;;;;;;;4.00;2.67;;;;;13.95;100.00;99752.78;5042644;28;45450;-70
2022/09/29 06:20:20;;;;;;;;;6.00;3.00;;;;;13.97;100.00;99751.00;5034493;28;45379;-70
2022/09/29 06:22:45;;;;;;;;;5.00;4.00;;;;;14.03;100.00;99755.28;5043850;28;45554;-70
2022/09/29 06:25:10;;;;;;;;;6.33;5.00;;;;;14.01;100.00;99751.78;5037344;28;67061;-70
2022/09/29 06:27:35;;;;;;;;;3.67;3.67;;;;;14.07;100.00;99757.88;5042343;28;63128;-70
2022/09/29 06:30:01;;;;;;;;;4.00;4.00;;;;;14.08;100.00;99761.38;5045074;28;45427;-70
2022/09/29 06:32:26;;;;;;;;;5.33;4.33;;;;;14.01;100.00;99751.78;5051358;28;45447;-70
2022/09/29 06:37:36;;;;;;;;;5.00;5.00;;;;;14.05;100.00;99758.78;5052885;28;45518;-70
2022/09/29 06:40:07;;;;;;;;;6.67;4.00;;;;;14.04;100.00;99755.25;5040012;28;45528;-70
2022/09/29 06:42:33;;;;;;;;;9.00;3.00;;;;;14.06;100.00;99761.44;5039647;28;45617;-70
2022/09/29 06:44:58;;;;;;;;;3.33;3.33;;;;;14.07;100.00;99760.50;5040652;28;46353;-70
2022/09/29 06:47:24;;;;;;;;;2.00;2.00;;;;;14.04;100.00;99757.91;5040200;28;45618;-70
2022/09/29 06:49:49;;;;;;;;;3.00;3.00;;;;;14.09;100.00;99761.34;5041370;28;45412;-71
2022/09/29 06:52:15;;;;;;;;;4.00;4.00;;;;;14.12;100.00;99765.75;5056166;28;46398;-70
2022/09/29 06:54:41;;;;;;;;;4.33;3.00;;;;;14.12;100.00;99771.91;5048957;28;46421;-70
2022/09/29 06:57:06;;;;;;;;;5.00;3.00;;;;;14.13;100.00;99763.03;5045139;28;66326;-70
2022/09/29 06:59:31;;;;;;;;;4.67;4.67;;;;;14.13;100.00;99770.13;5037661;28;64918;-70
2022/09/29 07:01:57;;;;;;;;;2.67;2.33;;;;;14.10;100.00;99768.41;5038096;28;49787;-70
2022/09/29 07:04:22;;;;;;;;;3.00;3.00;;;;;14.06;100.00;99761.44;5026350;28;46221;-70
2022/09/29 07:06:48;;;;;;;;;7.33;3.00;;;;;14.08;100.00;99767.56;5043487;28;61570;-70
2022/09/29 07:09:16;;;;;;;;;4.00;3.33;;;;;14.10;100.00;99772.84;5038833;28;45175;-71
2022/09/29 07:11:45;;;;;;;;;5.33;4.00;;;;;14.10;100.00;99773.72;5047955;28;45516;-70
2022/09/29 07:14:21;;;;;;;;;4.33;2.00;;;;;14.04;100.00;99770.31;5052916;28;47595;-70
2022/09/29 07:16:47;;;;;;;;;4.00;4.00;;;;;14.14;100.00;99787.81;5044027;28;45585;-70
2022/09/29 07:19:13;;;;;;;;;7.00;4.00;;;;;14.17;100.00;99782.44;5032567;28;45383;-70
2022/09/29 07:21:38;;;;;;;;;8.00;5.00;;;;;14.20;100.00;99786.81;5038340;28;45734;-70
2022/09/29 07:24:04;;;;;;;;;4.00;4.00;;;;;14.19;100.00;99782.41;5037633;28;47169;-69
2022/09/29 07:26:29;;;;;;;;;4.00;4.00;;;;;14.24;100.00;99789.38;5042234;28;46096;-70
2022/09/29 07:28:54;;;;;;;;;8.00;4.00;;;;;14.35;100.00;99799.75;5044381;28;45647;-71
2022/09/29 07:31:20;;;;;;;;;4.33;3.33;;;;;14.32;100.00;99792.72;5037066;28;65555;-70
2022/09/29 07:33:47;;;;;;;;;7.00;5.00;;;;;14.38;100.00;99794.38;5050176;28;46325;-70
2022/09/29 07:36:14;;;;;;;;;6.33;5.33;;;;;14.50;100.00;99807.44;5032421;28;45492;-71
2022/09/29 07:38:39;;;;;;;;;5.00;5.00;;;;;14.55;100.00;99808.22;5038552;28;45570;-70
2022/09/29 07:41:10;;;;;;;;;4.67;4.00;;;;;14.54;100.00;99809.13;5035770;28;51092;-70
2022/09/29 07:43:36;;;;;;;;;7.33;5.67;;;;;14.53;100.00;99801.19;5039284;28;46482;-70
2022/09/29 07:46:01;;;;;;;;;6.00;4.00;;;;;14.59;100.00;99807.22;5043020;28;45618;-70
2022/09/29 07:48:28;;;;;;;;;5.33;4.00;;;;;14.58;100.00;99800.16;5037957;28;45359;-71
2022/09/29 07:51:06;;;;;;;;;4.00;4.00;;;;;14.68;100.00;99809.69;5037888;28;45775;-70
2022/09/29 07:53:33;;;;;;;;;5.33;5.33;;;;;14.66;100.00;99811.50;5042285;28;45418;-69
2022/09/29 07:56:06;;;;;;;;;10.33;5.00;;;;;14.64;100.00;99808.00;5038737;28;45459;-70
2022/09/29 07:58:32;;;;;;;;;4.33;4.33;;;;;14.63;100.00;99816.88;5037707;28;45514;-69
2022/09/29 08:00:58;;;;;;;;;7.33;6.00;;;;;14.63;100.00;99822.19;5018862;28;45535;-70
2022/09/29 08:03:24;;;;;;;;;4.33;4.33;;;;;14.62;100.00;99824.91;5035947;28;46312;-70
2022/09/29 08:05:51;;;;;;;;;7.67;5.67;;;;;14.62;100.00;99827.56;5031947;28;45336;-71
2022/09/29 08:08:16;;;;;;;;;5.00;5.00;;;;;14.58;100.00;99829.38;5037412;28;45635;-70
2022/09/29 08:10:42;;;;;;;;;6.67;5.33;;;;;14.63;100.00;99838.13;5037421;28;45209;-70
2022/09/29 08:13:08;;;;;;;;;5.33;4.00;;;;;14.65;100.00;99835.47;5037480;28;46530;-69
2022/09/29 08:15:33;;;;;;;;;5.33;4.67;;;;;14.63;100.00;99831.94;5039077;28;45754;-70
2022/09/29 08:17:58;;;;;;;;;3.00;3.00;;;;;14.70;100.00;99844.22;5013251;28;59208;-70
2022/09/29 08:20:25;;;;;;;;;5.00;4.00;;;;;14.73;100.00;99844.13;5037893;28;53707;-70
2022/09/29 08:22:51;;;;;;;;;5.00;4.00;;;;;14.72;100.00;99854.81;5040024;28;46574;-70
2022/09/29 08:25:17;;;;;;;;;6.00;5.00;;;;;14.73;100.00;99849.44;5035789;28;45482;-71
2022/09/29 08:27:42;;;;;;;;;4.33;4.33;;;;;14.78;100.00;99859.97;5038120;28;45439;-70
2022/09/29 08:30:09;;;;;;;;;6.33;4.00;;;;;14.78;100.00;99855.53;5038284;28;45376;-71
2022/09/29 08:32:35;;;;;;;;;7.00;7.00;;;;;14.74;100.00;99851.19;5038703;28;47237;-70
2022/09/29 08:35:00;;;;;;;;;6.00;6.00;;;;;14.69;100.00;99850.41;5039794;28;45255;-69
2022/09/29 08:37:26;;;;;;;;;6.67;5.00;;;;;14.78;100.00;99865.28;5048687;28;45329;-70
2022/09/29 08:39:51;;;;;;;;;5.00;5.00;;;;;14.85;100.00;99866.91;5036959;28;45570;-70
2022/09/29 08:42:29;;;;;;;;;7.33;6.33;;;;;14.99;100.00;99875.47;5027905;28;64362;-69
2022/09/29 08:45:01;;;;;;;;;6.33;4.67;;;;;15.08;100.00;99859.31;5035217;28;45554;-69
2022/09/29 08:47:28;;;;;;;;;7.00;5.33;;;;;15.25;100.00;99868.66;5030935;28;45485;-71
2022/09/29 08:49:57;;;;;;;;;6.33;5.00;;;;;15.42;100.00;99870.00;5019224;28;45891;-70
2022/09/29 08:52:31;;;;;;;;;6.33;6.33;;;;;15.60;100.00;99858.03;5036793;28;46486;-71
2022/09/29 08:55:16;;;;;;;;;5.33;5.33;;;;;15.93;100.00;99872.31;5027973;28;45546;-70
2022/09/29 08:57:45;;;;;;;;;4.33;4.33;;;;;16.09;100.00;99870.13;5026728;28;45571;-70
2022/09/29 09:00:16;;;;;;;;;6.67;6.67;;;;;16.26;100.00;99880.31;5018498;28;45427;-70
2022/09/29 09:03:01;;;;;;;;;6.00;6.00;;;;;16.41;100.00;99877.22;5036223;28;47296;-70
2022/09/29 09:05:34;;;;;;;;;6.00;6.00;;;;;16.48;100.00;99875.25;5034785;28;46591;-71
2022/09/29 09:08:31;;;;;;;;;10.67;7.67;;;;;16.53;100.00;99868.00;5036846;28;45460;-70
2022/09/29 09:11:39;;;;;;;;;9.67;8.00;;;;;16.60;100.00;99876.69;5042159;28;46121;-71
2022/09/29 09:14:07;;;;;;;;;6.67;6.33;;;;;16.56;100.00;99885.69;5039429;28;47698;-70
2022/09/29 09:16:52;;;;;;;;;7.67;6.00;;;;;16.46;100.00;99879.75;5047346;28;45380;-69
2022/09/29 09:19:54;;;;;;;;;4.67;4.67;;;;;16.30;100.00;99889.97;5021495;28;45505;-70
2022/09/29 09:22:55;;;;;;;;;4.00;4.00;;;;;16.17;100.00;99877.88;5037279;28;45562;-70
2022/09/29 09:25:30;;;;;;;;;4.00;4.00;;;;;16.09;100.00;99875.44;5005384;28;46821;-69
2022/09/29 09:28:17;;;;;;;;;4.67;4.00;;;;;16.10;100.00;99879.84;5037102;28;45769;-69
2022/09/29 09:30:54;;;;;;;;;4.00;4.00;;;;;16.03;100.00;99867.59;5036384;28;45465;-70
2022/09/29 09:33:50;;;;;;;;;3.33;3.33;;;;;16.06;100.00;99878.19;5036221;28;45439;-71
2022/09/29 09:36:21;;;;;;;;;1.00;1.00;;;;;16.04;100.00;99879.16;5027908;28;46626;-70
2022/09/29 09:38:53;;;;;;;;;0.00;0.00;;;;;16.06;100.00;99885.28;5036033;28;45352;-71
2022/09/29 09:41:21;;;;;;;;;1.00;1.00;;;;;16.06;100.00;99886.16;5018558;28;45527;-71
2022/09/29 09:43:50;;;;;;;;;2.00;2.00;;;;;16.03;100.00;99880.91;5039056;28;45349;-70
2022/09/29 09:46:16;;;;;;;;;4.00;4.00;;;;;16.08;100.00;99894.97;5034714;28;46577;-69
2022/09/29 09:48:45;;;;;;;;;6.67;5.00;;;;;16.02;100.00;99881.81;5040678;28;45293;-70
2022/09/29 09:51:32;;;;;;;;;6.00;6.00;;;;;16.07;100.00;99897.69;5026173;28;45494;-70
2022/09/29 09:54:03;;;;;;;;;8.00;6.00;;;;;16.12;100.00;99893.97;5045377;28;45313;-70
2022/09/29 09:56:58;;;;;;;;;7.67;6.67;;;;;16.19;100.00;99892.94;5018514;28;46698;-70
2022/09/29 09:59:38;;;;;;;;;9.00;8.00;;;;;16.27;100.00;99897.16;5021631;28;45490;-70
2022/09/29 10:02:03;;;;;;;;;7.33;7.33;;;;;16.35;100.00;99895.16;5036274;28;45546;-71
2022/09/29 10:04:30;;;;;;;;;9.00;7.33;;;;;16.44;100.00;99898.44;5024387;28;46595;-70
2022/09/29 10:06:55;;;;;;;;;7.00;7.00;;;;;16.50;100.00;99897.38;5045380;28;46868;-70
2022/09/29 10:09:21;;;;;;;;;8.33;6.67;;;;;16.56;100.00;99893.66;5042688;28;47092;-69
2022/09/29 10:11:46;;;;;;;;;6.00;6.00;;;;;16.69;100.00;99895.09;5046771;28;59645;-71
2022/09/29 10:14:25;;;;;;;;;9.67;7.67;;;;;16.70;100.00;99894.16;5049309;28;54019;-72
2022/09/29 10:16:59;;;;;;;;;7.33;7.33;;;;;16.82;100.00;99895.63;5042377;28;46639;-73
2022/09/29 10:19:54;;;;;;;;;3.00;3.00;;;;;16.92;100.00;99902.44;5049200;28;45470;-68
2022/09/29 10:22:20;;;;;;;;;2.00;2.00;;;;;16.94;100.00;99903.28;5042936;28;47002;-71
2022/09/29 10:24:45;;;;;;;;;4.00;4.00;;;;;17.03;100.00;99905.63;5038732;28;45498;-72
2022/09/29 10:27:17;;;;;;;;;3.00;3.00;;;;;17.11;100.00;99905.44;5040834;28;61437;-72
2022/09/29 10:29:48;;;;;;;;;5.00;5.00;;;;;17.19;100.00;99909.59;5043079;28;45458;-72
2022/09/29 10:32:37;;;;;;;;;3.67;3.67;;;;;17.25;100.00;99898.72;5022318;28;45474;-72
2022/09/29 10:35:09;;;;;;;;;7.00;4.33;;;;;17.35;100.00;99901.09;5023288;28;45588;-69
2022/09/29 10:37:36;;;;;;;;;5.67;4.33;;;;;17.37;100.00;99896.63;5041078;28;46723;-70
2022/09/29 10:40:09;;;;;;;;;8.33;6.33;;;;;17.43;100.00;99899.94;5021719;28;45583;-69
2022/09/29 10:42:39;;;;;;;;;6.33;6.33;;;;;17.48;100.00;99900.69;5028509;28;45478;-70
2022/09/29 10:45:10;;;;;;;;;6.00;6.00;;;;;17.59;100.00;99907.47;5040876;28;45680;-69
2022/09/29 10:47:36;;;;;;;;;5.00;5.00;;;;;17.67;100.00;99902.72;5042755;28;45459;-71
2022/09/29 10:50:13;;;;;;;;;8.00;6.67;;;;;17.72;100.00;99909.69;5042414;28;45460;-70
2022/09/29 10:52:42;;;;;;;;;7.00;7.00;;;;;17.76;100.00;99907.81;5046905;28;45427;-70
2022/09/29 10:55:15;;;;;;;;;6.00;5.00;;;;;17.81;100.00;99916.53;5037970;28;45431;-70
2022/09/29 10:57:41;;;;;;;;;3.33;3.33;;;;;17.85;100.00;99920.00;5038163;28;47435;-72
2022/09/29 11:00:33;;;;;;;;;2.67;2.67;;;;;17.90;100.00;99918.06;5016446;28;46281;-70
2022/09/29 11:03:17;;;;;;;;;4.00;4.00;;;;;17.91;100.00;99926.00;5034278;28;45571;-70
2022/09/29 11:05:52;;;;;;;;;10.00;10.00;;;;;17.84;100.00;99915.56;5034545;28;45471;-71
2022/09/29 11:08:20;;;;;;;;;11.67;10.00;;;;;17.66;100.00;99904.53;5022348;28;47369;-71
2022/09/29 11:10:46;;;;;;;;;12.67;11.33;;;;;17.71;100.00;99931.97;5040864;28;45578;-69
2022/09/29 11:13:18;;;;;;;;;15.33;13.00;;;;;17.61;100.00;99927.84;5047192;28;45526;-74
2022/09/29 11:15:43;;;;;;;;;14.67;12.33;;;;;17.45;100.00;99930.13;5044788;28;45411;-70
2022/09/29 11:18:21;;;;;;;;;7.33;7.33;;;;;17.36;100.00;99940.22;5039100;28;45947;-72
2022/09/29 11:20:59;;;;;;;;;9.67;9.67;;;;;17.21;100.00;99936.25;5016473;28;45577;-73
2022/09/29 11:24:02;;;;;;;;;12.67;11.00;;;;;17.10;100.00;99947.22;5017594;28;45589;-70
2022/09/29 11:26:43;;;;;;;;;12.00;10.00;;;;;16.94;100.00;99951.28;5036148;28;45495;-72
2022/09/29 11:29:36;;;;;;;;;9.00;9.00;;;;;16.82;100.00;99963.16;5044700;28;47384;-72
2022/09/29 11:32:26;;;;;;;;;13.33;12.67;;;;;16.65;100.00;99960.91;5046930;28;45527;-71
2022/09/29 11:35:09;;;;;;;;;8.00;8.00;;;;;16.57;100.00;99972.72;5023755;28;45476;-71
2022/09/29 11:37:48;;;;;;;;;12.00;11.00;;;;;16.46;100.00;99981.88;5025250;28;45528;-71
2022/09/29 11:40:16;;;;;;;;;8.00;8.00;;;;;16.38;100.00;99977.66;5023061;28;46503;-71
2022/09/29 11:42:41;;;;;;;;;9.67;9.67;;;;;16.30;100.00;99983.22;5010278;28;46114;-71